Time;durP1;ratioP1;P1;durP2;ratioP2;P2;SDS_P1;SDS_P2;PMS_P1;PMS_P2;Temp;Humidity;BMP_temperature;BMP_pressure;BME280_temperature;BME280_humidity;BME280_pressure;Samples;Min_cycle;Max_cycle;Signal;HPM_P1;HPM_P2
2021/11/22 00:00:01;;;;;;;26.82;14.95;;;4.90;99.90;;;;;;1935752;72;21133;-78
2021/11/22 00:02:27;;;;;;;29.67;15.88;;;4.90;99.90;;;;;;1950598;73;21126;-77
2021/11/22 00:04:54;;;;;;;27.32;14.20;;;4.90;99.90;;;;;;1932157;72;21144;-76
2021/11/22 00:07:20;;;;;;;29.12;15.83;;;4.90;99.90;;;;;;1954531;72;21124;-76
2021/11/22 00:09:46;;;;;;;25.10;14.30;;;5.00;99.90;;;;;;1938446;72;21070;-76
2021/11/22 00:12:12;;;;;;;22.85;14.83;;;4.90;99.90;;;;;;1950786;71;21263;-77
2021/11/22 00:14:38;;;;;;;26.82;15.18;;;5.00;99.90;;;;;;1954759;72;21196;-77
2021/11/22 00:17:04;;;;;;;28.38;15.08;;;5.10;99.90;;;;;;1923149;72;21188;-76
2021/11/22 00:19:31;;;;;;;24.25;15.43;;;5.10;99.90;;;;;;1926453;72;21082;-75
2021/11/22 00:21:57;;;;;;;24.65;15.45;;;5.00;99.90;;;;;;1939759;72;21105;-77
2021/11/22 00:24:23;;;;;;;28.83;15.32;;;5.00;99.90;;;;;;1927707;72;21466;-76
2021/11/22 00:26:49;;;;;;;32.73;16.00;;;4.90;99.90;;;;;;1926383;72;21440;-77
2021/11/22 00:29:15;;;;;;;30.75;16.73;;;5.00;99.90;;;;;;1941748;72;21415;-77
2021/11/22 00:31:44;;;;;;;29.23;16.12;;;5.00;99.90;;;;;;1916456;72;21456;-76
2021/11/22 00:34:09;;;;;;;33.63;17.20;;;5.10;99.90;;;;;;1927018;72;21158;-76
2021/11/22 00:36:38;;;;;;;32.05;16.42;;;5.10;99.90;;;;;;1933538;72;21147;-79
2021/11/22 00:39:03;;;;;;;25.75;15.15;;;5.10;99.90;;;;;;1935762;72;21179;-77
2021/11/22 00:41:29;;;;;;;26.97;16.30;;;5.00;99.90;;;;;;1942342;73;21209;-76
2021/11/22 00:43:56;;;;;;;27.32;15.45;;;5.10;99.90;;;;;;1949556;72;21181;-76
2021/11/22 00:46:23;;;;;;;30.40;16.12;;;5.10;99.90;;;;;;1921904;73;21133;-77
2021/11/22 00:48:49;;;;;;;30.77;15.80;;;5.10;99.90;;;;;;1935580;71;21070;-75
2021/11/22 00:51:15;;;;;;;29.02;16.35;;;5.10;99.90;;;;;;1947293;73;21067;-76
2021/11/22 00:53:41;;;;;;;28.57;16.35;;;5.10;99.90;;;;;;1924084;72;21062;-76
2021/11/22 00:56:07;;;;;;;37.85;16.25;;;5.10;99.90;;;;;;1927578;72;21078;-76
2021/11/22 00:58:33;;;;;;;34.85;15.78;;;5.10;99.90;;;;;;1942662;72;21117;-76
2021/11/22 01:00:59;;;;;;;29.32;16.45;;;5.10;99.90;;;;;;1941361;73;21083;-77
2021/11/22 01:03:25;;;;;;;35.28;16.65;;;5.10;99.90;;;;;;1938617;71;21078;-76
2021/11/22 01:05:52;;;;;;;33.13;16.35;;;5.10;99.90;;;;;;1944165;73;21479;-76
2021/11/22 01:08:18;;;;;;;29.60;15.95;;;5.00;99.90;;;;;;1952940;72;21435;-76
2021/11/22 01:10:44;;;;;;;33.20;16.87;;;5.00;99.90;;;;;;1934200;73;21495;-76
2021/11/22 01:13:11;;;;;;;35.03;17.25;;;5.00;99.90;;;;;;1930507;72;21459;-78
2021/11/22 01:15:37;;;;;;;34.58;16.57;;;5.00;99.90;;;;;;1937213;71;21086;-77
2021/11/22 01:18:03;;;;;;;34.30;17.67;;;5.00;99.90;;;;;;1933292;72;21040;-76
2021/11/22 01:20:31;;;;;;;26.90;16.23;;;5.10;99.90;;;;;;1941935;72;21071;-77
2021/11/22 01:22:57;;;;;;;28.60;15.93;;;5.10;99.90;;;;;;1946856;71;21165;-77
2021/11/22 01:25:23;;;;;;;30.37;15.38;;;5.10;99.90;;;;;;1928372;73;21063;-76
2021/11/22 01:27:51;;;;;;;33.98;16.05;;;5.00;99.90;;;;;;1944284;73;21136;-77
2021/11/22 01:30:18;;;;;;;28.80;15.35;;;5.00;99.90;;;;;;1952315;71;21148;-77
2021/11/22 01:32:44;;;;;;;29.95;16.50;;;5.10;99.90;;;;;;1950272;72;21132;-77
2021/11/22 01:35:11;;;;;;;32.10;17.57;;;5.00;99.90;;;;;;1945647;72;21113;-77
2021/11/22 01:37:37;;;;;;;26.73;16.10;;;5.00;99.90;;;;;;1933654;72;21067;-77
2021/11/22 01:40:03;;;;;;;26.82;16.25;;;5.00;99.90;;;;;;1947295;72;21134;-77
2021/11/22 01:42:29;;;;;;;30.00;16.60;;;5.00;99.90;;;;;;1949178;71;21533;-77
2021/11/22 01:44:55;;;;;;;33.45;18.07;;;5.00;99.90;;;;;;1941424;72;21543;-76
2021/11/22 01:47:21;;;;;;;33.92;18.40;;;5.00;99.90;;;;;;1940221;71;21463;-76
2021/11/22 01:49:48;;;;;;;33.23;17.35;;;4.90;99.90;;;;;;1924090;72;21447;-76
2021/11/22 01:52:14;;;;;;;32.40;17.42;;;5.00;99.90;;;;;;1937330;72;21554;-78
2021/11/22 01:54:40;;;;;;;39.05;17.82;;;5.10;99.90;;;;;;1941226;72;21465;-76
2021/11/22 01:57:06;;;;;;;29.40;16.75;;;5.10;99.90;;;;;;1950547;72;21062;-76
2021/11/22 01:59:32;;;;;;;35.10;16.73;;;5.10;99.90;;;;;;1937485;72;21062;-77
2021/11/22 02:01:59;;;;;;;29.92;16.70;;;5.10;99.90;;;;;;1949683;71;21070;-78
2021/11/22 02:04:25;;;;;;;38.05;16.27;;;5.00;99.90;;;;;;1941304;71;21047;-77
2021/11/22 02:06:51;;;;;;;31.07;17.62;;;5.00;99.90;;;;;;1933898;72;21145;-77
2021/11/22 02:09:18;;;;;;;33.18;17.40;;;5.00;99.90;;;;;;1934384;72;21079;-77
2021/11/22 02:11:44;;;;;;;29.42;17.37;;;4.90;99.90;;;;;;1947494;72;21168;-77
2021/11/22 02:14:10;;;;;;;34.55;16.97;;;5.00;99.90;;;;;;1942320;72;21449;-76
2021/11/22 02:16:36;;;;;;;29.72;17.42;;;5.00;99.90;;;;;;1930853;72;21714;-77
2021/11/22 02:19:02;;;;;;;29.87;17.82;;;4.90;99.90;;;;;;1921661;72;21554;-77
2021/11/22 02:21:28;;;;;;;31.57;17.67;;;4.80;99.90;;;;;;1937731;72;21455;-77
2021/11/22 02:23:54;;;;;;;30.62;17.82;;;4.80;99.90;;;;;;1950449;73;21042;-76
2021/11/22 02:26:20;;;;;;;34.05;18.70;;;5.00;99.90;;;;;;1946695;73;21124;-77
2021/11/22 02:28:47;;;;;;;36.77;17.25;;;5.00;99.90;;;;;;1947073;71;21079;-78
2021/11/22 02:31:13;;;;;;;30.00;16.45;;;5.10;99.90;;;;;;1929035;72;21075;-76
2021/11/22 02:33:39;;;;;;;30.97;16.15;;;5.10;99.90;;;;;;1934972;72;21193;-77
2021/11/22 02:36:05;;;;;;;30.32;17.27;;;5.00;99.90;;;;;;1938033;72;21039;-77
2021/11/22 02:38:31;;;;;;;32.03;16.40;;;5.00;99.90;;;;;;1941076;72;21541;-77
2021/11/22 02:40:57;;;;;;;36.75;19.25;;;5.00;99.90;;;;;;1945416;72;21491;-78
2021/11/22 02:43:24;;;;;;;26.12;16.48;;;5.00;99.90;;;;;;1919495;73;21207;-78
2021/11/22 02:45:50;;;;;;;33.40;17.85;;;5.00;99.90;;;;;;1942965;72;21078;-77
2021/11/22 02:48:16;;;;;;;28.60;16.82;;;5.10;99.90;;;;;;1948346;73;21083;-77
2021/11/22 02:50:42;;;;;;;43.00;18.70;;;5.10;99.90;;;;;;1953069;71;21111;-77
2021/11/22 02:53:08;;;;;;;26.95;17.17;;;5.00;99.90;;;;;;1939592;71;21568;-76
2021/11/22 02:55:34;;;;;;;25.88;17.37;;;5.10;99.90;;;;;;1941539;72;21450;-77
2021/11/22 02:58:00;;;;;;;30.62;17.00;;;5.20;99.90;;;;;;1947934;72;21482;-77
2021/11/22 03:00:27;;;;;;;26.80;17.25;;;5.20;99.90;;;;;;1924713;71;21433;-77
2021/11/22 03:02:53;;;;;;;29.15;17.35;;;5.10;99.90;;;;;;1919373;73;21526;-77
2021/11/22 03:05:19;;;;;;;29.52;17.35;;;5.00;99.90;;;;;;1947909;73;21149;-77
2021/11/22 03:07:45;;;;;;;27.17;16.02;;;5.10;99.90;;;;;;1943214;72;21206;-76
2021/11/22 03:10:12;;;;;;;29.15;16.60;;;5.10;99.90;;;;;;1930654;72;21068;-77
2021/11/22 03:12:38;;;;;;;31.68;17.40;;;5.00;99.90;;;;;;1904336;73;21456;-77
2021/11/22 03:15:04;;;;;;;34.23;18.20;;;5.00;99.90;;;;;;1935233;72;21605;-77
2021/11/22 03:17:30;;;;;;;36.73;19.60;;;5.10;99.90;;;;;;1933105;72;21156;-77
2021/11/22 03:19:56;;;;;;;27.07;15.88;;;5.10;99.90;;;;;;1915031;72;21075;-77
2021/11/22 03:22:22;;;;;;;41.25;17.20;;;5.10;99.90;;;;;;1917248;72;21044;-76
2021/11/22 03:24:49;;;;;;;36.17;18.40;;;5.20;99.90;;;;;;1952179;71;21058;-77
2021/11/22 03:27:15;;;;;;;32.05;16.23;;;5.30;99.90;;;;;;1909939;73;21144;-77
2021/11/22 03:29:41;;;;;;;36.23;17.67;;;5.30;99.90;;;;;;1940745;72;21143;-77
2021/11/22 03:32:07;;;;;;;29.12;17.40;;;5.20;99.90;;;;;;1907489;72;21028;-77
2021/11/22 03:34:33;;;;;;;31.40;18.25;;;5.10;99.90;;;;;;1944986;72;21363;-77
2021/11/22 03:37:03;;;;;;;36.33;17.23;;;5.00;99.90;;;;;;1943487;71;21129;-77
2021/11/22 03:39:27;;;;;;;32.93;18.20;;;5.00;99.90;;;;;;1944261;72;21104;-76
2021/11/22 03:41:55;;;;;;;30.20;18.07;;;5.00;99.90;;;;;;1932566;72;21039;-76
2021/11/22 03:44:21;;;;;;;33.63;17.40;;;5.10;99.90;;;;;;1965049;71;21523;-77
2021/11/22 03:46:47;;;;;;;36.93;17.90;;;5.00;99.90;;;;;;1947732;71;21458;-76
2021/11/22 03:49:14;;;;;;;30.27;16.80;;;5.00;99.90;;;;;;1954980;70;21066;-75
2021/11/22 03:51:40;;;;;;;25.95;15.25;;;5.10;99.90;;;;;;1952962;70;21051;-76
2021/11/22 03:54:06;;;;;;;31.95;17.32;;;5.20;99.90;;;;;;1921241;71;21012;-76
2021/11/22 03:56:32;;;;;;;36.42;16.93;;;5.20;99.90;;;;;;1951556;70;21062;-77
2021/11/22 03:58:58;;;;;;;28.83;15.78;;;5.20;99.90;;;;;;1967386;71;21129;-74
2021/11/22 04:01:24;;;;;;;29.25;16.70;;;5.10;99.90;;;;;;1964861;70;21192;-76
2021/11/22 04:03:50;;;;;;;28.62;15.35;;;5.10;99.90;;;;;;1979418;72;21085;-76
2021/11/22 04:06:17;;;;;;;32.23;16.93;;;5.20;99.90;;;;;;1933694;72;21132;-76
2021/11/22 04:08:43;;;;;;;37.53;17.32;;;5.20;99.90;;;;;;1956163;70;21444;-76
2021/11/22 04:11:09;;;;;;;32.08;16.67;;;5.20;99.90;;;;;;1952174;70;21514;-75
2021/11/22 04:13:35;;;;;;;30.15;17.20;;;5.00;99.90;;;;;;1946688;70;21109;-76
2021/11/22 04:16:02;;;;;;;35.20;16.42;;;5.10;99.90;;;;;;1976513;70;21121;-76
2021/11/22 04:18:28;;;;;;;28.73;15.05;;;5.10;99.90;;;;;;1967152;70;21771;-75
2021/11/22 04:20:54;;;;;;;33.55;17.67;;;5.00;99.90;;;;;;1959922;70;21624;-75
2021/11/22 04:23:20;;;;;;;30.40;15.55;;;5.00;99.90;;;;;;1975053;70;21474;-76
2021/11/22 04:25:46;;;;;;;27.82;15.83;;;5.10;99.90;;;;;;1973811;71;21235;-76
2021/11/22 04:28:12;;;;;;;32.78;16.75;;;5.20;99.90;;;;;;1963140;72;21098;-76
2021/11/22 04:30:38;;;;;;;30.02;16.15;;;5.20;99.90;;;;;;1958948;72;21128;-77
2021/11/22 04:33:05;;;;;;;28.77;16.30;;;5.20;99.90;;;;;;1946047;71;21071;-77
2021/11/22 04:35:31;;;;;;;29.77;16.45;;;5.20;99.90;;;;;;1967530;71;21141;-77
2021/11/22 04:37:57;;;;;;;28.38;15.68;;;5.20;99.90;;;;;;1976059;70;21272;-76
2021/11/22 04:40:23;;;;;;;34.83;16.60;;;5.10;99.90;;;;;;1971398;70;21031;-77
2021/11/22 04:42:49;;;;;;;23.87;15.70;;;5.10;99.90;;;;;;1958527;70;21414;-75
2021/11/22 04:45:15;;;;;;;26.80;15.65;;;5.10;99.90;;;;;;1978858;70;21479;-76
2021/11/22 04:47:41;;;;;;;27.22;14.68;;;5.00;99.90;;;;;;1948872;71;21203;-76
2021/11/22 04:50:08;;;;;;;27.17;15.08;;;5.10;99.90;;;;;;1935460;71;21141;-77
2021/11/22 04:52:34;;;;;;;28.98;15.20;;;5.20;99.90;;;;;;1941368;70;21116;-76
2021/11/22 04:55:00;;;;;;;27.52;14.83;;;5.20;99.90;;;;;;1946365;72;21111;-77
2021/11/22 04:57:27;;;;;;;26.87;15.20;;;5.30;99.90;;;;;;1979859;71;21215;-76
2021/11/22 04:59:54;;;;;;;24.82;14.00;;;5.30;99.90;;;;;;1953677;70;21037;-77
2021/11/22 05:02:20;;;;;;;32.95;15.48;;;5.20;99.90;;;;;;1969381;70;21436;-77
2021/11/22 05:04:46;;;;;;;31.35;15.13;;;5.20;99.90;;;;;;1951492;70;21542;-76
2021/11/22 05:07:12;;;;;;;27.52;14.35;;;5.20;99.90;;;;;;1962062;70;21475;-77
2021/11/22 05:09:38;;;;;;;26.57;15.28;;;5.10;99.90;;;;;;1947385;70;21054;-75
2021/11/22 05:12:04;;;;;;;25.30;14.90;;;5.10;99.90;;;;;;1969114;71;21036;-77
2021/11/22 05:14:30;;;;;;;31.07;15.20;;;5.10;99.90;;;;;;1964333;70;21129;-78
2021/11/22 05:16:56;;;;;;;37.15;15.55;;;5.10;99.90;;;;;;1957482;71;21051;-77
2021/11/22 05:19:29;;;;;;;39.10;14.63;;;5.20;99.90;;;;;;1976286;70;21200;-77
2021/11/22 05:21:50;;;;;;;29.10;15.98;;;5.10;99.90;;;;;;1955876;70;21490;-78
2021/11/22 05:24:16;;;;;;;29.65;16.15;;;5.00;99.90;;;;;;1968269;70;21493;-78
2021/11/22 05:26:43;;;;;;;23.50;14.35;;;5.00;99.90;;;;;;1981037;70;21463;-77
2021/11/22 05:29:09;;;;;;;33.75;14.98;;;5.10;99.90;;;;;;1943850;71;21414;-77
2021/11/22 05:31:35;;;;;;;28.38;15.98;;;5.10;99.90;;;;;;1971980;70;21059;-77
2021/11/22 05:34:01;;;;;;;29.32;15.83;;;5.20;99.90;;;;;;1968106;71;21140;-76
2021/11/22 05:36:28;;;;;;;26.97;14.68;;;5.20;99.90;;;;;;1981219;70;21067;-78
2021/11/22 05:38:54;;;;;;;28.62;15.18;;;5.30;99.90;;;;;;1963023;71;21451;-77
2021/11/22 05:41:22;;;;;;;30.48;15.65;;;5.30;99.90;;;;;;1954096;70;21491;-78
2021/11/22 05:43:48;;;;;;;28.12;15.00;;;5.20;99.90;;;;;;1967145;70;21044;-78
2021/11/22 05:46:14;;;;;;;25.15;14.38;;;5.20;99.90;;;;;;1940855;71;21050;-77
2021/11/22 05:48:40;;;;;;;29.98;15.80;;;5.20;99.90;;;;;;1968005;70;21199;-78
2021/11/22 05:51:08;;;;;;;27.80;15.78;;;5.30;99.90;;;;;;1944792;72;21051;-77
2021/11/22 05:53:35;;;;;;;30.85;15.93;;;5.30;99.90;;;;;;1980828;70;21036;-76
2021/11/22 05:56:01;;;;;;;33.50;15.95;;;5.30;99.90;;;;;;1943950;71;21622;-77
2021/11/22 05:58:27;;;;;;;30.10;14.53;;;5.30;99.90;;;;;;1969268;70;21227;-77
2021/11/22 06:00:53;;;;;;;24.37;14.00;;;5.30;99.90;;;;;;1960862;70;21266;-76
2021/11/22 06:03:19;;;;;;;26.70;14.63;;;5.20;99.90;;;;;;1942624;70;21125;-77
2021/11/22 06:05:45;;;;;;;28.57;15.15;;;5.20;99.90;;;;;;1983422;71;21027;-77
2021/11/22 06:08:11;;;;;;;28.80;14.90;;;5.20;99.90;;;;;;1960475;70;21054;-78
2021/11/22 06:10:38;;;;;;;23.40;13.70;;;5.20;99.90;;;;;;1980961;70;21233;-79
2021/11/22 06:13:05;;;;;;;28.60;14.63;;;5.20;99.90;;;;;;1967572;70;21210;-77
2021/11/22 06:15:33;;;;;;;29.23;13.32;;;5.30;99.90;;;;;;1970483;71;21105;-76
2021/11/22 06:17:59;;;;;;;23.47;12.58;;;5.30;99.90;;;;;;1957676;70;21489;-76
2021/11/22 06:20:25;;;;;;;30.27;14.20;;;5.30;99.90;;;;;;1958586;70;21491;-79
2021/11/22 06:22:51;;;;;;;26.33;13.93;;;5.20;99.90;;;;;;1977398;71;21552;-78
2021/11/22 06:25:17;;;;;;;23.57;13.83;;;5.30;99.90;;;;;;1984797;70;21032;-77
2021/11/22 06:27:43;;;;;;;21.60;13.25;;;5.20;99.90;;;;;;1976757;70;21055;-77
2021/11/22 06:30:10;;;;;;;19.40;12.35;;;5.20;99.90;;;;;;1970233;71;21124;-77
2021/11/22 06:32:36;;;;;;;22.40;13.03;;;5.20;99.90;;;;;;1975635;71;21120;-78
2021/11/22 06:35:02;;;;;;;19.32;12.33;;;5.20;99.90;;;;;;1974140;70;21024;-79
2021/11/22 06:37:31;;;;;;;17.70;11.70;;;5.30;99.90;;;;;;1978632;70;21214;-77
2021/11/22 06:39:56;;;;;;;17.87;12.47;;;5.30;99.90;;;;;;1941047;70;21503;-78
2021/11/22 06:42:22;;;;;;;21.77;11.68;;;5.20;99.90;;;;;;1964893;71;21117;-77
2021/11/22 06:44:48;;;;;;;14.78;10.75;;;5.30;99.90;;;;;;1939901;70;21440;-77
2021/11/22 06:47:14;;;;;;;19.23;12.43;;;5.30;99.90;;;;;;1965415;70;21133;-77
2021/11/22 06:49:40;;;;;;;20.45;12.93;;;5.30;99.90;;;;;;1956179;70;21183;-76
2021/11/22 06:52:07;;;;;;;21.33;12.45;;;5.30;99.90;;;;;;1969566;70;21259;-77
2021/11/22 06:54:33;;;;;;;19.73;11.95;;;5.40;99.90;;;;;;1965155;70;21249;-76
2021/11/22 06:56:59;;;;;;;21.85;12.93;;;5.40;99.90;;;;;;1966090;71;21063;-77
2021/11/22 06:59:27;;;;;;;21.68;12.53;;;5.40;99.90;;;;;;1944931;70;21124;-77
2021/11/22 07:01:53;;;;;;;20.48;12.30;;;5.40;99.90;;;;;;1954145;71;21271;-79
2021/11/22 07:04:20;;;;;;;20.37;13.13;;;5.40;99.90;;;;;;1972447;70;21154;-77
2021/11/22 07:06:46;;;;;;;18.17;12.07;;;5.30;99.90;;;;;;1958527;70;21132;-77
2021/11/22 07:09:14;;;;;;;17.17;12.63;;;5.40;99.90;;;;;;1973685;70;21222;-77
2021/11/22 07:11:40;;;;;;;18.10;11.93;;;5.40;99.90;;;;;;1955399;70;21099;-77
2021/11/22 07:14:06;;;;;;;22.40;12.68;;;5.50;99.90;;;;;;1947288;71;21129;-76
2021/11/22 07:16:32;;;;;;;23.47;12.93;;;5.50;99.90;;;;;;1962479;70;21173;-75
2021/11/22 07:18:58;;;;;;;22.35;12.28;;;5.50;99.90;;;;;;1952069;71;21132;-77
2021/11/22 07:21:25;;;;;;;21.00;12.33;;;5.60;99.90;;;;;;1973409;70;21064;-77
2021/11/22 07:23:51;;;;;;;18.87;12.63;;;5.60;99.90;;;;;;1942716;70;21030;-77
2021/11/22 07:26:17;;;;;;;17.23;11.18;;;5.60;99.90;;;;;;1968688;70;21067;-77
2021/11/22 07:28:43;;;;;;;18.00;11.38;;;5.40;99.90;;;;;;1960956;70;21120;-76
2021/11/22 07:31:09;;;;;;;18.40;12.37;;;5.40;99.90;;;;;;1988403;70;21144;-77
2021/11/22 07:33:36;;;;;;;16.87;11.88;;;5.40;99.90;;;;;;1970469;70;21079;-77
2021/11/22 07:36:02;;;;;;;18.92;12.28;;;5.50;99.90;;;;;;1984370;70;21226;-77
2021/11/22 07:38:28;;;;;;;18.85;11.05;;;5.50;99.90;;;;;;1981997;70;21063;-77
2021/11/22 07:40:55;;;;;;;15.90;10.35;;;5.40;99.90;;;;;;1962347;71;21129;-76
2021/11/22 07:43:21;;;;;;;15.55;11.10;;;5.40;99.90;;;;;;1946140;70;21101;-81
2021/11/22 07:45:47;;;;;;;15.28;10.35;;;5.50;99.90;;;;;;1927901;70;21124;-76
2021/11/22 07:48:14;;;;;;;17.10;11.30;;;5.50;99.90;;;;;;1957078;70;21143;-78
2021/11/22 07:50:40;;;;;;;19.23;11.50;;;5.50;99.90;;;;;;1987084;70;21086;-78
2021/11/22 07:53:08;;;;;;;17.20;11.12;;;5.50;99.90;;;;;;1972247;70;21058;-79
2021/11/22 07:55:34;;;;;;;15.72;10.98;;;5.60;99.90;;;;;;1965370;70;21457;-78
2021/11/22 07:58:00;;;;;;;15.28;10.72;;;5.70;99.90;;;;;;1974474;70;21274;-78
2021/11/22 08:00:27;;;;;;;16.17;10.80;;;5.60;99.90;;;;;;1981598;71;21032;-78
2021/11/22 08:02:53;;;;;;;15.83;9.98;;;5.60;99.90;;;;;;1956715;70;21246;-77
2021/11/22 08:05:19;;;;;;;15.72;10.68;;;5.70;99.90;;;;;;1967218;70;21051;-79
2021/11/22 08:07:45;;;;;;;20.00;10.32;;;5.70;99.90;;;;;;1943439;70;21220;-77
2021/11/22 08:10:47;;;;;;;15.80;10.95;;;5.70;99.90;;;;;;1971789;70;21605;-79
2021/11/22 08:12:45;;;;;;;13.28;9.83;;;5.70;99.90;;;;;;1957085;71;21106;-76
2021/11/22 08:15:12;;;;;;;13.88;9.30;;;5.80;99.90;;;;;;1970272;71;21059;-78
2021/11/22 08:17:40;;;;;;;14.43;8.90;;;5.70;99.90;;;;;;1973686;71;21454;-78
2021/11/22 08:20:07;;;;;;;12.20;9.10;;;5.70;99.90;;;;;;1960492;70;21129;-78
2021/11/22 08:22:33;;;;;;;11.78;9.58;;;5.60;99.90;;;;;;1986607;70;21160;-78
2021/11/22 08:24:59;;;;;;;10.72;8.98;;;5.70;99.90;;;;;;1976954;71;21524;-78
2021/11/22 08:27:27;;;;;;;12.58;9.03;;;5.90;99.90;;;;;;1958849;71;21415;-76
2021/11/22 08:29:54;;;;;;;14.13;8.68;;;5.90;99.90;;;;;;1989760;70;21192;-77
2021/11/22 08:32:20;;;;;;;13.85;8.93;;;6.00;99.90;;;;;;1983515;70;21074;-77
2021/11/22 08:34:46;;;;;;;10.58;7.92;;;6.00;99.90;;;;;;1965714;70;21462;-77
2021/11/22 08:37:12;;;;;;;11.20;8.48;;;6.10;99.90;;;;;;1964540;71;21520;-77
2021/11/22 08:39:38;;;;;;;10.38;7.90;;;6.20;99.90;;;;;;1992277;70;21439;-77
2021/11/22 08:42:04;;;;;;;9.78;7.42;;;6.10;99.90;;;;;;1984372;71;21137;-78
2021/11/22 08:44:30;;;;;;;10.13;6.65;;;6.10;99.90;;;;;;1970837;71;21189;-78
2021/11/22 08:46:56;;;;;;;7.85;6.05;;;6.10;99.90;;;;;;1959528;71;21070;-78
2021/11/22 08:49:23;;;;;;;7.08;6.10;;;6.10;99.90;;;;;;1969703;70;21132;-78
2021/11/22 08:51:49;;;;;;;9.13;6.40;;;6.10;99.90;;;;;;1957141;70;21040;-76
2021/11/22 08:54:15;;;;;;;11.80;6.37;;;6.10;99.90;;;;;;1975805;69;21063;-77
2021/11/22 08:56:41;;;;;;;9.85;6.55;;;6.10;99.90;;;;;;1975254;70;21125;-78
2021/11/22 08:59:07;;;;;;;8.93;6.45;;;6.00;99.90;;;;;;1976278;71;21117;-76
2021/11/22 09:01:33;;;;;;;11.50;6.28;;;6.10;99.90;;;;;;1975790;70;21074;-76
2021/11/22 09:03:59;;;;;;;6.97;6.22;;;6.10;99.90;;;;;;1978834;70;21075;-76
2021/11/22 09:06:25;;;;;;;9.45;5.78;;;6.20;99.90;;;;;;1979930;70;21466;-76
2021/11/22 09:08:52;;;;;;;14.33;6.00;;;6.20;99.90;;;;;;1954910;70;21460;-75
2021/11/22 09:11:18;;;;;;;7.10;5.90;;;6.10;99.90;;;;;;1943681;71;21494;-76
2021/11/22 09:13:44;;;;;;;7.67;5.87;;;6.20;99.90;;;;;;1943437;72;21563;-74
2021/11/22 09:16:10;;;;;;;11.35;7.20;;;6.30;99.90;;;;;;1946817;70;21063;-75
2021/11/22 09:18:36;;;;;;;9.85;7.60;;;6.30;99.90;;;;;;1961614;70;21031;-75
2021/11/22 09:21:02;;;;;;;9.20;7.53;;;6.40;99.90;;;;;;1982246;70;21063;-75
2021/11/22 09:23:31;;;;;;;13.10;7.53;;;6.30;99.90;;;;;;1968235;70;21471;-76
2021/11/22 09:25:57;;;;;;;8.45;5.97;;;6.40;99.90;;;;;;1958599;70;21190;-76
2021/11/22 09:28:24;;;;;;;8.98;6.33;;;6.50;99.90;;;;;;1940461;72;21035;-75
2021/11/22 09:30:50;;;;;;;7.47;6.10;;;6.50;99.90;;;;;;1964672;70;21027;-76
2021/11/22 09:33:16;;;;;;;7.22;5.33;;;6.60;99.90;;;;;;1964821;72;21062;-75
2021/11/22 09:35:42;;;;;;;8.90;6.20;;;6.60;99.90;;;;;;1974223;70;21062;-75
2021/11/22 09:38:08;;;;;;;7.90;6.33;;;6.60;99.90;;;;;;1953472;70;21540;-75
2021/11/22 09:40:34;;;;;;;8.23;5.72;;;6.70;99.90;;;;;;1960853;70;21536;-76
2021/11/22 09:43:00;;;;;;;9.68;6.47;;;6.60;99.90;;;;;;1976748;70;21544;-76
2021/11/22 09:45:27;;;;;;;12.53;7.15;;;6.70;99.90;;;;;;1957469;71;21059;-74
2021/11/22 09:47:53;;;;;;;8.15;6.05;;;6.80;99.90;;;;;;1981720;70;21938;-75
2021/11/22 09:50:19;;;;;;;8.20;6.08;;;6.80;99.90;;;;;;1955918;71;21421;-75
2021/11/22 09:52:45;;;;;;;9.30;5.85;;;6.90;99.90;;;;;;1958397;70;21642;-75
2021/11/22 09:55:12;;;;;;;8.10;5.12;;;6.90;99.90;;;;;;1960839;71;21608;-75
2021/11/22 09:57:38;;;;;;;11.85;5.65;;;7.10;99.90;;;;;;1952596;71;21064;-75
2021/11/22 10:00:05;;;;;;;9.15;6.25;;;7.10;99.90;;;;;;1964751;70;21177;-75
2021/11/22 10:02:31;;;;;;;5.90;5.10;;;7.20;99.90;;;;;;1963282;70;21067;-76
2021/11/22 10:04:57;;;;;;;7.12;6.12;;;7.10;99.90;;;;;;1966378;71;21028;-76
2021/11/22 10:07:23;;;;;;;8.85;6.03;;;7.10;99.90;;;;;;1955074;70;21195;-77
2021/11/22 10:09:51;;;;;;;7.33;5.12;;;7.20;99.90;;;;;;1967327;70;21437;-77
2021/11/22 10:12:17;;;;;;;6.85;5.53;;;7.20;99.90;;;;;;1959562;70;21124;-76
2021/11/22 10:14:43;;;;;;;7.33;5.92;;;7.00;99.90;;;;;;1963171;70;21055;-76
2021/11/22 10:17:09;;;;;;;10.20;5.83;;;7.10;99.90;;;;;;1971303;70;21062;-76
2021/11/22 10:19:35;;;;;;;9.63;6.08;;;7.00;99.90;;;;;;1962922;70;21031;-77
2021/11/22 10:22:01;;;;;;;16.27;6.05;;;7.00;99.90;;;;;;1962309;70;21230;-75
2021/11/22 10:24:28;;;;;;;7.30;5.62;;;6.90;99.90;;;;;;1947838;70;21450;-75
2021/11/22 10:26:54;;;;;;;9.68;5.90;;;7.00;99.90;;;;;;1985803;70;21064;-76
2021/11/22 10:29:20;;;;;;;8.93;5.92;;;7.10;99.90;;;;;;1971306;70;21055;-75
2021/11/22 10:31:46;;;;;;;11.53;6.65;;;7.10;99.90;;;;;;1946002;70;21120;-74
2021/11/22 10:34:12;;;;;;;11.03;6.15;;;7.20;99.90;;;;;;1968779;70;21075;-75
2021/11/22 10:36:38;;;;;;;8.88;5.78;;;7.20;99.90;;;;;;1972103;70;21066;-74
2021/11/22 10:39:04;;;;;;;10.03;5.90;;;7.20;99.90;;;;;;1952386;70;21124;-74
2021/11/22 10:41:31;;;;;;;9.15;5.90;;;7.20;99.90;;;;;;1959780;70;21144;-76
2021/11/22 10:43:57;;;;;;;12.30;5.25;;;7.10;99.90;;;;;;1940766;70;21459;-77
2021/11/22 10:46:23;;;;;;;9.10;6.08;;;7.20;99.90;;;;;;1955112;71;21074;-76
2021/11/22 10:48:51;;;;;;;11.38;5.15;;;7.30;99.90;;;;;;1973403;70;21194;-75
2021/11/22 10:51:21;;;;;;;7.00;4.65;;;7.40;99.90;;;;;;1953755;70;21115;-76
2021/11/22 10:53:45;;;;;;;10.18;5.08;;;7.30;99.90;;;;;;1960889;70;21518;-77
2021/11/22 10:56:11;;;;;;;10.85;5.58;;;7.40;99.90;;;;;;1961379;71;21024;-77
2021/11/22 10:58:37;;;;;;;7.42;5.30;;;7.30;99.90;;;;;;1959637;70;21196;-76
2021/11/22 11:01:03;;;;;;;7.40;4.90;;;7.20;99.90;;;;;;1983371;70;21063;-77
2021/11/22 11:03:29;;;;;;;7.85;5.05;;;7.30;99.90;;;;;;1976240;70;21067;-77
2021/11/22 11:05:55;;;;;;;6.33;4.67;;;7.40;99.90;;;;;;1969705;70;21247;-77
2021/11/22 11:08:21;;;;;;;15.18;4.78;;;7.40;99.90;;;;;;1970634;70;21023;-78
2021/11/22 11:10:51;;;;;;;6.95;5.00;;;7.40;99.90;;;;;;1949173;70;21063;-78
2021/11/22 11:13:15;;;;;;;7.70;5.00;;;7.50;99.90;;;;;;1948928;72;21092;-78
2021/11/22 11:15:42;;;;;;;11.63;5.33;;;7.50;99.90;;;;;;1944030;72;21063;-76
2021/11/22 11:18:08;;;;;;;9.45;5.35;;;7.50;99.90;;;;;;1966312;71;21074;-78
2021/11/22 11:20:34;;;;;;;7.70;4.92;;;7.50;99.90;;;;;;1978465;70;21129;-78
2021/11/22 11:23:00;;;;;;;12.50;5.80;;;7.50;99.90;;;;;;1970335;72;21032;-77
2021/11/22 11:25:28;;;;;;;8.95;5.33;;;7.50;99.90;;;;;;1980709;71;21540;-76
2021/11/22 11:27:54;;;;;;;7.87;4.67;;;7.60;99.90;;;;;;1961465;70;21144;-77
2021/11/22 11:30:20;;;;;;;9.48;4.80;;;7.60;99.90;;;;;;1965539;71;21071;-79
2021/11/22 11:32:46;;;;;;;6.42;5.62;;;7.50;99.90;;;;;;1975267;70;21066;-76
2021/11/22 11:35:17;;;;;;;27.77;15.35;;;7.50;99.90;;;;;;1968526;71;21063;-75
2021/11/22 11:37:43;;;;;;;5.97;4.80;;;7.70;99.90;;;;;;1955116;70;21278;-75
2021/11/22 11:40:09;;;;;;;9.60;5.12;;;7.80;99.90;;;;;;1966529;70;21032;-74
2021/11/22 11:42:35;;;;;;;6.35;4.50;;;7.90;99.90;;;;;;1935452;70;21150;-73
2021/11/22 11:45:02;;;;;;;8.33;4.35;;;8.00;99.90;;;;;;1970817;70;21549;-75
2021/11/22 11:47:28;;;;;;;6.05;4.20;;;8.00;99.90;;;;;;1991449;70;21458;-74
2021/11/22 11:49:54;;;;;;;6.45;4.70;;;8.00;99.90;;;;;;1954844;71;21487;-75
2021/11/22 11:52:20;;;;;;;5.20;4.12;;;7.90;99.90;;;;;;1956950;70;21486;-75
2021/11/22 11:54:46;;;;;;;7.03;3.65;;;7.90;99.90;;;;;;1949016;72;21051;-82
2021/11/22 11:57:12;;;;;;;7.17;3.70;;;7.90;99.90;;;;;;1938465;70;21060;-78
2021/11/22 11:59:41;;;;;;;8.33;4.05;;;7.80;99.90;;;;;;1983156;70;21058;-77
2021/11/22 12:02:06;;;;;;;6.03;3.90;;;7.80;99.90;;;;;;1952516;71;21521;-77
2021/11/22 12:04:32;;;;;;;6.45;3.90;;;7.70;99.90;;;;;;1940801;72;21404;-75
2021/11/22 12:06:58;;;;;;;5.22;3.70;;;7.80;99.90;;;;;;1939496;72;21896;-74
2021/11/22 12:09:25;;;;;;;7.45;3.83;;;7.70;99.90;;;;;;1970519;70;21218;-77
2021/11/22 12:11:51;;;;;;;8.93;3.87;;;7.70;99.90;;;;;;1953860;70;21073;-75
2021/11/22 12:14:18;;;;;;;7.67;4.05;;;7.80;99.90;;;;;;1954412;72;21063;-75
2021/11/22 12:16:44;;;;;;;10.38;4.95;;;7.70;99.90;;;;;;1948955;70;21058;-76
2021/11/22 12:19:10;;;;;;;5.87;4.58;;;7.60;99.90;;;;;;1962763;70;21559;-76
2021/11/22 12:21:36;;;;;;;12.35;6.80;;;7.60;99.90;;;;;;1984093;70;21400;-75
2021/11/22 12:24:02;;;;;;;10.20;3.60;;;7.50;99.90;;;;;;1944922;70;21137;-77
2021/11/22 12:26:29;;;;;;;6.03;3.50;;;7.50;99.90;;;;;;1966192;71;21188;-77
2021/11/22 12:28:55;;;;;;;4.80;3.70;;;7.50;99.90;;;;;;1954500;71;21154;-77
2021/11/22 12:31:26;;;;;;;5.87;3.50;;;7.40;99.90;;;;;;1961261;70;21440;-76
2021/11/22 12:33:49;;;;;;;6.58;4.33;;;7.40;99.90;;;;;;1950672;70;21120;-77
2021/11/22 12:36:16;;;;;;;4.40;3.47;;;7.30;99.90;;;;;;1902445;73;21071;-77